createdAt,value
2018-09-20T00:00:22.542Z,22.70
2018-09-20T00:02:56.884Z,22.60
2018-09-20T00:05:32.217Z,22.60
2018-09-20T00:08:06.585Z,22.60
2018-09-20T00:10:41.109Z,22.60
2018-09-20T00:13:15.445Z,22.50
2018-09-20T00:15:49.774Z,22.50
2018-09-20T00:18:24.153Z,22.40
2018-09-20T00:23:32.761Z,22.40
2018-09-20T00:26:07.187Z,22.30
2018-09-20T00:28:41.546Z,22.30
2018-09-20T00:31:15.982Z,22.30
2018-09-20T00:33:50.298Z,22.20
2018-09-20T00:36:24.566Z,22.20
2018-09-20T00:38:59.027Z,22.10
2018-09-20T00:41:33.458Z,22.10
2018-09-20T00:44:08.182Z,22.10
2018-09-20T00:46:42.531Z,22.00
2018-09-20T00:49:16.718Z,22.00
2018-09-20T00:51:51.005Z,22.00
2018-09-20T00:54:25.344Z,22.00
2018-09-20T00:56:59.865Z,22.00
2018-09-20T00:59:34.247Z,22.00
2018-09-20T01:02:08.715Z,21.90
2018-09-20T01:04:43.267Z,21.90
2018-09-20T01:07:17.723Z,21.90
2018-09-20T01:09:51.996Z,21.90
2018-09-20T01:12:27.473Z,21.90
2018-09-20T01:15:02.178Z,21.90
2018-09-20T01:17:36.807Z,21.80
2018-09-20T01:20:11.295Z,21.80
2018-09-20T01:22:45.825Z,21.70
2018-09-20T01:25:20.299Z,21.70
2018-09-20T01:27:54.689Z,21.70
2018-09-20T01:30:29.089Z,21.70
2018-09-20T01:33:03.577Z,21.60
2018-09-20T01:35:38.062Z,21.60
2018-09-20T01:38:12.521Z,21.60
2018-09-20T01:40:46.981Z,21.50
2018-09-20T01:43:21.338Z,21.50
2018-09-20T01:45:55.809Z,21.50
2018-09-20T01:48:30.234Z,21.50
2018-09-20T01:51:04.652Z,21.40
2018-09-20T01:53:39.002Z,21.40
2018-09-20T01:56:16.066Z,21.30
2018-09-20T01:58:50.453Z,21.30
2018-09-20T02:01:24.813Z,21.30
2018-09-20T02:03:59.328Z,21.30
2018-09-20T02:06:33.671Z,21.30
2018-09-20T02:09:08.734Z,21.20
2018-09-20T02:11:43.259Z,21.20
2018-09-20T02:14:17.691Z,21.20
2018-09-20T02:16:52.283Z,21.10
2018-09-20T02:19:26.576Z,21.10
2018-09-20T02:22:01.079Z,21.10
2018-09-20T02:24:35.569Z,21.10
2018-09-20T02:27:09.920Z,21.00
2018-09-20T02:29:44.413Z,21.00
2018-09-20T02:32:18.679Z,21.00
2018-09-20T02:34:52.997Z,21.00
2018-09-20T02:37:27.420Z,21.00
2018-09-20T02:40:01.843Z,20.90
2018-09-20T02:42:36.111Z,21.00
2018-09-20T02:45:10.358Z,20.90
2018-09-20T02:47:45.263Z,20.90
2018-09-20T02:50:19.542Z,20.90
2018-09-20T02:52:53.908Z,20.90
2018-09-20T02:55:28.301Z,20.80
2018-09-20T02:58:02.626Z,20.80
2018-09-20T03:00:36.968Z,20.70
2018-09-20T03:03:11.254Z,20.70
2018-09-20T03:05:45.760Z,20.70
2018-09-20T03:08:20.117Z,20.60
2018-09-20T03:10:54.575Z,20.60
2018-09-20T03:13:29.758Z,20.50
2018-09-20T03:16:04.185Z,20.50
2018-09-20T03:18:38.499Z,20.50
2018-09-20T03:21:12.905Z,20.50
2018-09-20T03:23:47.080Z,20.50
2018-09-20T03:26:21.292Z,20.50
2018-09-20T03:28:55.775Z,20.50
2018-09-20T03:31:30.275Z,20.50
2018-09-20T03:34:04.585Z,20.50
2018-09-20T03:36:39.095Z,20.40
2018-09-20T03:39:13.582Z,20.40
2018-09-20T03:41:47.951Z,20.40
2018-09-20T03:44:22.361Z,20.40
2018-09-20T03:46:56.699Z,20.40
2018-09-20T03:49:31.083Z,20.40
2018-09-20T03:52:05.589Z,20.30
2018-09-20T03:54:39.929Z,20.30
2018-09-20T03:57:14.257Z,20.20
2018-09-20T03:59:48.610Z,20.20
2018-09-20T04:02:22.939Z,20.20
2018-09-20T04:04:57.173Z,20.10
2018-09-20T04:07:31.561Z,20.10
2018-09-20T04:12:40.159Z,20.00
2018-09-20T04:15:14.535Z,20.00
2018-09-20T04:17:48.871Z,20.00
2018-09-20T04:20:23.149Z,20.00
2018-09-20T04:22:57.454Z,20.00
2018-09-20T04:25:31.822Z,20.00
2018-09-20T04:28:06.218Z,20.00
2018-09-20T04:30:40.462Z,19.90
2018-09-20T04:33:14.851Z,19.90
2018-09-20T04:35:49.170Z,20.00
2018-09-20T04:38:23.509Z,19.90
2018-09-20T04:40:57.870Z,20.00
2018-09-20T04:43:32.308Z,19.90
2018-09-20T04:46:06.632Z,19.90
2018-09-20T04:48:41.381Z,19.80
2018-09-20T04:51:15.868Z,19.80
2018-09-20T04:53:50.303Z,19.80
2018-09-20T04:56:25.946Z,19.80
2018-09-20T05:06:42.752Z,19.80
2018-09-20T05:09:17.017Z,19.80
2018-09-20T05:11:51.544Z,19.80
2018-09-20T05:14:25.871Z,19.80
2018-09-20T05:19:34.634Z,19.80
2018-09-20T05:22:09.082Z,19.70
2018-09-20T05:24:43.421Z,19.80
2018-09-20T05:27:17.677Z,19.80
2018-09-20T05:32:26.183Z,19.70
2018-09-20T05:35:00.585Z,19.70
2018-09-20T05:37:35.061Z,19.70
2018-09-20T05:40:09.381Z,19.70
2018-09-20T05:42:43.869Z,19.70
2018-09-20T05:45:18.315Z,19.80
2018-09-20T05:47:52.745Z,19.90
2018-09-20T05:50:27.193Z,20.00
2018-09-20T05:53:01.555Z,20.10
2018-09-20T05:55:36.006Z,20.30
2018-09-20T05:58:10.288Z,20.60
2018-09-20T06:00:44.734Z,21.30
2018-09-20T06:03:19.089Z,22.10
2018-09-20T06:05:53.464Z,23.60
2018-09-20T06:08:27.729Z,23.70
2018-09-20T06:11:02.125Z,24.60
2018-09-20T06:13:36.662Z,25.20
2018-09-20T06:16:11.144Z,25.90
2018-09-20T06:18:45.606Z,26.70
2018-09-20T06:21:20.037Z,27.30
2018-09-20T06:23:54.495Z,27.40
2018-09-20T06:26:28.841Z,26.00
2018-09-20T06:29:03.266Z,26.00
2018-09-20T06:31:37.713Z,25.30
2018-09-20T06:34:12.108Z,25.30
2018-09-20T06:36:46.291Z,25.80
2018-09-20T06:39:20.803Z,26.80
2018-09-20T06:41:55.166Z,27.60
2018-09-20T06:44:30.735Z,28.40
2018-09-20T06:47:05.236Z,28.40
2018-09-20T06:49:39.584Z,28.90
2018-09-20T06:52:14.053Z,28.90
2018-09-20T06:54:48.484Z,29.50
2018-09-20T06:57:22.944Z,29.60
2018-09-20T06:59:57.457Z,30.60
2018-09-20T07:02:32.044Z,31.70
2018-09-20T07:05:06.402Z,32.10
2018-09-20T07:10:18.636Z,33.70
2018-09-20T07:12:53.108Z,34.30
2018-09-20T07:15:27.754Z,34.70
2018-09-20T07:18:01.962Z,34.70
2018-09-20T07:20:36.492Z,35.20
2018-09-20T07:25:49.855Z,35.60
2018-09-20T07:28:27.753Z,35.80
2018-09-20T07:31:02.040Z,35.80
2018-09-20T07:33:36.371Z,36.10
2018-09-20T07:36:11.815Z,36.30
2018-09-20T07:38:46.650Z,36.80
2018-09-20T07:41:20.954Z,36.90
2018-09-20T07:43:55.308Z,36.90
2018-09-20T07:46:29.705Z,36.80
2018-09-20T07:49:04.689Z,36.90
2018-09-20T07:51:39.204Z,37.10
2018-09-20T07:54:13.438Z,37.60
2018-09-20T07:56:48.085Z,38.70
2018-09-20T07:59:22.464Z,38.50
2018-09-20T08:01:57.731Z,36.80
2018-09-20T08:04:32.632Z,35.00
2018-09-20T08:07:07.181Z,33.80
2018-09-20T08:09:41.562Z,34.00
2018-09-20T08:12:16.045Z,35.30
2018-09-20T08:14:50.530Z,36.40
2018-09-20T08:17:24.941Z,37.20
2018-09-20T08:20:00.297Z,37.80
2018-09-20T08:22:35.396Z,38.20
2018-09-20T08:25:09.914Z,38.60
2018-09-20T08:27:44.211Z,38.80
2018-09-20T08:30:18.505Z,38.90
2018-09-20T08:32:53.005Z,39.00
2018-09-20T08:35:27.237Z,39.00
2018-09-20T08:38:01.569Z,39.80
2018-09-20T08:40:35.973Z,40.90
2018-09-20T08:43:10.541Z,41.90
2018-09-20T08:45:46.397Z,42.40
2018-09-20T08:48:20.821Z,42.60
2018-09-20T08:50:54.947Z,42.70
2018-09-20T08:53:29.400Z,42.90
2018-09-20T08:56:03.708Z,42.90
2018-09-20T08:58:37.953Z,42.40
2018-09-20T09:01:12.302Z,42.40
2018-09-20T09:03:46.636Z,42.00
2018-09-20T09:06:21.043Z,42.30
2018-09-20T09:08:55.568Z,42.80
2018-09-20T09:11:30.837Z,43.70
2018-09-20T09:14:05.331Z,44.00
2018-09-20T09:16:39.583Z,44.50
2018-09-20T09:19:14.079Z,44.10
2018-09-20T09:21:48.515Z,43.60
2018-09-20T09:26:57.231Z,42.90
2018-09-20T09:29:31.687Z,43.30
2018-09-20T09:32:06.109Z,43.50
2018-09-20T09:34:40.634Z,43.90
2018-09-20T09:37:14.966Z,43.70
2018-09-20T09:39:49.463Z,43.70
2018-09-20T09:42:24.961Z,43.10
2018-09-20T09:44:59.341Z,42.60
2018-09-20T09:47:33.861Z,42.60
2018-09-20T09:50:08.187Z,42.80
2018-09-20T09:52:42.823Z,42.70
2018-09-20T09:55:17.183Z,43.00
2018-09-20T09:57:52.369Z,43.20
2018-09-20T10:00:34.467Z,43.00
2018-09-20T10:03:08.724Z,43.20
2018-09-20T10:05:43.106Z,43.40
2018-09-20T10:08:17.546Z,43.90
2018-09-20T10:10:51.814Z,44.10
2018-09-20T10:13:26.388Z,44.00
2018-09-20T10:16:00.604Z,43.80
2018-09-20T10:18:34.922Z,43.80
2018-09-20T10:21:10.165Z,43.80
2018-09-20T10:23:44.554Z,43.80
2018-09-20T10:26:18.752Z,43.90
2018-09-20T10:28:52.998Z,41.70
2018-09-20T10:31:27.405Z,40.20
2018-09-20T10:34:01.782Z,39.70
2018-09-20T10:36:36.062Z,39.00
2018-09-20T10:39:12.334Z,38.70
2018-09-20T10:41:46.753Z,38.60
2018-09-20T10:44:21.084Z,37.80
2018-09-20T10:46:55.379Z,37.50
2018-09-20T10:49:29.673Z,36.60
2018-09-20T10:52:04.166Z,36.60
2018-09-20T10:54:38.662Z,37.60
2018-09-20T10:57:13.035Z,37.80
2018-09-20T10:59:47.516Z,38.80
2018-09-20T11:02:21.823Z,39.30
2018-09-20T11:04:57.345Z,39.30
2018-09-20T11:07:31.648Z,39.50
2018-09-20T11:10:06.109Z,39.60
2018-09-20T11:12:40.211Z,39.00
2018-09-20T11:15:14.754Z,39.00
2018-09-20T11:17:49.121Z,39.10
2018-09-20T11:20:23.566Z,38.80
2018-09-20T11:22:57.986Z,38.00
2018-09-20T11:25:32.321Z,36.90
2018-09-20T11:28:06.662Z,36.70
2018-09-20T11:30:41.067Z,36.10
2018-09-20T11:33:15.578Z,35.90
2018-09-20T11:35:50.149Z,35.90
2018-09-20T11:38:24.450Z,35.70
2018-09-20T11:40:58.837Z,34.80
2018-09-20T11:43:33.124Z,34.70
2018-09-20T11:46:08.099Z,34.60
2018-09-20T11:48:42.423Z,34.60
2018-09-20T11:51:16.688Z,34.60
2018-09-20T11:53:51.016Z,34.80
2018-09-20T11:56:25.666Z,35.00
2018-09-20T11:58:59.912Z,35.10
2018-09-20T12:01:34.121Z,35.00
2018-09-20T12:04:09.207Z,34.60
2018-09-20T12:06:43.629Z,34.60
2018-09-20T12:11:52.391Z,34.40
2018-09-20T12:14:27.580Z,34.20
2018-09-20T12:17:01.940Z,34.00
2018-09-20T12:19:36.480Z,33.80
2018-09-20T12:22:11.018Z,33.80
2018-09-20T12:24:45.407Z,33.70
2018-09-20T12:27:19.765Z,33.80
2018-09-20T12:29:54.405Z,33.30
2018-09-20T12:32:56.760Z,33.10
2018-09-20T12:35:31.232Z,32.90
2018-09-20T12:38:05.433Z,32.60
2018-09-20T12:40:39.670Z,32.50
2018-09-20T12:43:14.078Z,32.60
2018-09-20T12:45:48.445Z,32.60
2018-09-20T12:48:23.186Z,32.60
2018-09-20T12:50:57.403Z,34.10
2018-09-20T12:53:31.703Z,32.50
2018-09-20T12:56:06.092Z,32.40
2018-09-20T12:58:42.287Z,32.10
2018-09-20T13:01:17.185Z,32.10
2018-09-20T13:03:51.633Z,32.10
2018-09-20T13:06:25.978Z,32.00
2018-09-20T13:09:00.497Z,31.80
2018-09-20T13:11:34.815Z,31.80
2018-09-20T13:14:09.835Z,31.70
2018-09-20T13:16:44.190Z,31.80
2018-09-20T13:19:18.593Z,31.70
2018-09-20T13:21:53.661Z,31.50
2018-09-20T13:24:28.063Z,31.50
2018-09-20T13:27:02.494Z,31.30
2018-09-20T13:29:38.785Z,31.30
2018-09-20T13:32:13.066Z,31.30
2018-09-20T13:34:47.345Z,31.30
2018-09-20T13:37:22.171Z,31.40
2018-09-20T13:39:56.594Z,31.50
2018-09-20T13:42:30.913Z,31.50
2018-09-20T13:45:05.799Z,31.50
2018-09-20T13:47:40.150Z,31.50
2018-09-20T13:50:14.506Z,31.40
2018-09-20T13:52:49.004Z,31.40
2018-09-20T13:55:23.442Z,31.30
2018-09-20T13:57:58.413Z,31.30
2018-09-20T14:00:34.474Z,31.20
2018-09-20T14:03:08.671Z,31.20
2018-09-20T14:05:43.070Z,31.30
2018-09-20T14:08:18.605Z,31.10
2018-09-20T14:10:53.021Z,30.90
2018-09-20T14:13:27.271Z,30.70
2018-09-20T14:18:35.863Z,30.50
2018-09-20T14:21:10.931Z,30.30
2018-09-20T14:26:20.063Z,30.10
2018-09-20T14:28:54.394Z,30.00
2018-09-20T14:31:29.563Z,29.80
2018-09-20T14:34:04.056Z,29.60
2018-09-20T14:36:38.612Z,29.60
2018-09-20T14:39:12.984Z,29.60
2018-09-20T14:41:47.301Z,29.70
2018-09-20T14:44:21.761Z,29.70
2018-09-20T14:46:56.249Z,29.60
2018-09-20T14:49:30.705Z,29.60
2018-09-20T14:52:05.173Z,29.40
2018-09-20T14:54:39.527Z,29.40
2018-09-20T14:57:13.988Z,29.50
2018-09-20T14:59:48.279Z,29.50
2018-09-20T15:02:22.719Z,29.50
2018-09-20T15:04:57.106Z,29.50
2018-09-20T15:07:31.453Z,29.40
2018-09-20T15:10:05.997Z,29.20
2018-09-20T15:12:40.705Z,29.20
2018-09-20T15:15:16.245Z,29.10
2018-09-20T15:17:50.588Z,29.10
2018-09-20T15:20:24.805Z,29.00
2018-09-20T15:22:59.707Z,29.00
2018-09-20T15:25:34.210Z,29.10
2018-09-20T15:28:08.366Z,29.20
2018-09-20T15:33:17.881Z,29.50
2018-09-20T15:35:52.205Z,29.50
2018-09-20T15:38:26.770Z,29.40
2018-09-20T15:41:01.077Z,29.40
2018-09-20T15:43:35.621Z,29.30
2018-09-20T15:46:10.393Z,29.20
2018-09-20T15:48:44.821Z,29.20
2018-09-20T15:51:19.256Z,29.10
2018-09-20T15:53:53.538Z,29.00
2018-09-20T15:56:27.946Z,28.90
2018-09-20T15:59:02.422Z,28.80
2018-09-20T16:01:36.917Z,28.70
2018-09-20T16:04:11.289Z,32.60
2018-09-20T16:06:53.052Z,28.50
2018-09-20T16:09:27.447Z,28.40
2018-09-20T16:12:01.788Z,28.30
2018-09-20T16:14:36.193Z,28.20
2018-09-20T16:17:10.553Z,28.10
2018-09-20T16:19:44.982Z,28.00
2018-09-20T16:24:53.513Z,27.90
2018-09-20T16:27:27.821Z,27.90
2018-09-20T16:30:17.170Z,27.80
2018-09-20T16:33:00.694Z,27.70
2018-09-20T16:35:46.578Z,27.60
2018-09-20T16:38:34.101Z,27.60
2018-09-20T16:41:10.306Z,27.60
2018-09-20T16:43:47.343Z,27.40
2018-09-20T16:46:21.714Z,27.40
2018-09-20T16:48:56.097Z,27.40
2018-09-20T16:54:05.337Z,27.30
2018-09-20T16:59:13.969Z,27.10
2018-09-20T17:01:48.392Z,27.10
2018-09-20T17:04:22.727Z,27.00
2018-09-20T17:06:57.686Z,27.00
2018-09-20T17:09:32.183Z,26.90
2018-09-20T17:12:06.980Z,26.80
2018-09-20T17:14:42.044Z,26.80
2018-09-20T17:17:16.406Z,26.70
2018-09-20T17:19:50.809Z,26.70
2018-09-20T17:22:25.002Z,26.50
2018-09-20T17:24:59.506Z,26.40
2018-09-20T17:30:09.510Z,26.30
2018-09-20T17:32:43.926Z,26.20
2018-09-20T17:37:53.534Z,26.10
2018-09-20T17:40:29.990Z,25.90
2018-09-20T17:48:16.206Z,25.80
2018-09-20T17:50:50.722Z,25.70
2018-09-20T17:53:25.586Z,25.60
2018-09-20T17:56:00.195Z,25.60
2018-09-20T17:58:35.002Z,25.50
2018-09-20T18:01:09.859Z,25.40
2018-09-20T18:03:44.275Z,25.40
2018-09-20T18:06:18.594Z,25.40
2018-09-20T18:08:52.771Z,25.20
2018-09-20T18:11:27.208Z,25.20
2018-09-20T18:14:01.644Z,25.10
2018-09-20T18:16:36.173Z,25.10
2018-09-20T18:19:10.729Z,25.00
2018-09-20T18:21:45.304Z,24.90
2018-09-20T18:24:20.258Z,24.90
2018-09-20T18:26:54.534Z,24.80
2018-09-20T18:29:30.039Z,24.70
2018-09-20T18:32:04.298Z,24.70
2018-09-20T18:34:38.761Z,24.70
2018-09-20T18:37:12.982Z,24.60
2018-09-20T18:39:47.402Z,24.60
2018-09-20T18:42:21.841Z,24.50
2018-09-20T18:44:56.105Z,24.50
2018-09-20T18:47:30.583Z,24.40
2018-09-20T18:50:05.032Z,24.30
2018-09-20T18:52:39.308Z,24.30
2018-09-20T18:55:13.678Z,24.20
2018-09-20T18:57:48.060Z,24.20
2018-09-20T19:00:23.482Z,24.20
2018-09-20T19:02:57.834Z,24.20
2018-09-20T19:05:32.345Z,24.10
2018-09-20T19:08:06.752Z,24.00
2018-09-20T19:10:41.666Z,24.00
2018-09-20T19:13:15.986Z,23.90
2018-09-20T19:15:50.431Z,23.90
2018-09-20T19:18:24.938Z,23.90
2018-09-20T19:20:59.365Z,23.80
2018-09-20T19:23:33.860Z,23.80
2018-09-20T19:26:08.206Z,23.80
2018-09-20T19:28:42.746Z,23.70
2018-09-20T19:31:17.190Z,23.70
2018-09-20T19:33:51.621Z,23.70
2018-09-20T19:36:25.989Z,23.60
2018-09-20T19:39:03.517Z,23.60
2018-09-20T19:46:48.972Z,23.50
2018-09-20T19:49:23.410Z,23.40
2018-09-20T19:51:57.905Z,23.40
2018-09-20T19:54:32.477Z,23.30
2018-09-20T19:57:06.633Z,23.30
2018-09-20T19:59:40.901Z,23.30
2018-09-20T20:04:49.442Z,23.20
2018-09-20T20:07:23.842Z,23.10
2018-09-20T20:09:59.672Z,23.00
2018-09-20T20:12:33.953Z,23.00
2018-09-20T20:15:11.842Z,23.00
2018-09-20T20:17:46.136Z,22.90
2018-09-20T20:20:20.674Z,22.90
2018-09-20T20:22:54.965Z,22.80
2018-09-20T20:25:29.386Z,22.80
2018-09-20T20:28:03.912Z,22.90
2018-09-20T20:30:38.234Z,22.90
2018-09-20T20:33:12.585Z,22.80
2018-09-20T20:35:47.055Z,22.80
2018-09-20T20:38:21.479Z,22.80
2018-09-20T20:40:55.813Z,22.70
2018-09-20T20:43:30.139Z,22.70
2018-09-20T20:46:05.571Z,22.70
2018-09-20T20:48:39.886Z,22.70
2018-09-20T20:51:14.254Z,22.60
2018-09-20T20:53:48.757Z,22.60
2018-09-20T20:56:23.287Z,22.50
2018-09-20T20:58:57.553Z,22.50
2018-09-20T21:01:32.119Z,22.40
2018-09-20T21:04:06.748Z,22.40
2018-09-20T21:06:41.062Z,22.40
2018-09-20T21:09:15.413Z,22.30
2018-09-20T21:11:50.921Z,22.30
2018-09-20T21:14:25.155Z,22.30
2018-09-20T21:16:59.368Z,22.30
2018-09-20T21:19:33.754Z,22.30
2018-09-20T21:22:08.209Z,22.30
2018-09-20T21:24:43.359Z,22.40
2018-09-20T21:27:17.640Z,22.40
2018-09-20T21:29:52.267Z,22.40
2018-09-20T21:32:26.681Z,22.40
2018-09-20T21:35:01.636Z,22.40
2018-09-20T21:37:35.749Z,22.50
2018-09-20T21:40:10.066Z,22.50
2018-09-20T21:42:44.350Z,22.50
2018-09-20T21:45:18.618Z,22.50
2018-09-20T21:47:53.000Z,22.50
2018-09-20T21:50:27.422Z,22.50
2018-09-20T21:53:02.008Z,22.50
2018-09-20T21:55:36.462Z,22.50
2018-09-20T21:58:11.025Z,22.50
2018-09-20T22:00:45.820Z,22.50
2018-09-20T22:03:20.186Z,22.40
2018-09-20T22:05:54.453Z,22.40
2018-09-20T22:08:28.977Z,22.30
2018-09-20T22:11:03.712Z,22.30
2018-09-20T22:13:38.161Z,22.30
2018-09-20T22:16:12.654Z,22.20
2018-09-20T22:18:46.958Z,22.20
2018-09-20T22:21:21.290Z,22.20
2018-09-20T22:23:55.592Z,22.20
2018-09-20T22:26:30.061Z,22.10
2018-09-20T22:29:04.678Z,25.40
2018-09-20T22:31:39.126Z,22.10
2018-09-20T22:34:13.493Z,22.10
2018-09-20T22:36:47.953Z,22.00
2018-09-20T22:39:22.274Z,22.00
2018-09-20T22:41:56.596Z,22.00
2018-09-20T22:44:30.957Z,22.00
2018-09-20T22:47:05.202Z,22.00
2018-09-20T22:49:39.629Z,22.00
2018-09-20T22:52:13.946Z,22.00
2018-09-20T22:54:48.393Z,21.90
2018-09-20T22:57:22.810Z,21.90
2018-09-20T22:59:57.145Z,21.90
2018-09-20T23:02:31.558Z,21.90
2018-09-20T23:05:05.813Z,21.80
2018-09-20T23:07:40.190Z,21.80
2018-09-20T23:10:14.371Z,21.70
2018-09-20T23:12:48.816Z,21.70
2018-09-20T23:15:23.225Z,21.70
2018-09-20T23:17:58.144Z,21.60
2018-09-20T23:23:06.932Z,21.60
2018-09-20T23:25:41.330Z,21.60
2018-09-20T23:38:32.777Z,21.60
2018-09-20T23:41:07.013Z,21.60
2018-09-20T23:43:41.370Z,21.60
2018-09-20T23:46:15.748Z,21.60
2018-09-20T23:48:50.078Z,21.50
2018-09-20T23:56:32.782Z,21.40
